createdAt,value
2022-12-03T00:02:19.777Z,102682.41
2022-12-03T00:04:46.273Z,102678.09
2022-12-03T00:07:12.694Z,102673.78
2022-12-03T00:09:39.131Z,102667.66
2022-12-03T00:12:05.697Z,102664.19
2022-12-03T00:14:32.143Z,102672.00
2022-12-03T00:16:58.565Z,102675.47
2022-12-03T00:19:24.965Z,102675.47
2022-12-03T00:21:51.424Z,102665.94
2022-12-03T00:24:17.854Z,102658.13
2022-12-03T00:26:44.263Z,102667.72
2022-12-03T00:29:13.279Z,102672.06
2022-12-03T00:31:39.806Z,102663.34
2022-12-03T00:34:06.224Z,102657.25
2022-12-03T00:36:32.655Z,102652.03
2022-12-03T00:38:59.039Z,102656.41
2022-12-03T00:41:25.805Z,102652.03
2022-12-03T00:43:52.281Z,102646.81
2022-12-03T00:46:21.646Z,102648.53
2022-12-03T00:48:48.282Z,102644.19
2022-12-03T00:51:14.622Z,102646.81
2022-12-03T00:53:41.021Z,102652.00
2022-12-03T00:56:08.073Z,102646.81
2022-12-03T00:58:34.908Z,102645.06
2022-12-03T01:01:01.414Z,102633.78
2022-12-03T01:03:29.035Z,102634.69
2022-12-03T01:05:55.398Z,102638.13
2022-12-03T01:08:21.754Z,102626.84
2022-12-03T01:10:48.143Z,102628.56
2022-12-03T01:13:14.506Z,102629.41
2022-12-03T01:15:41.082Z,102632.00
2022-12-03T01:18:10.555Z,102628.56
2022-12-03T01:20:38.544Z,102625.94
2022-12-03T01:23:05.254Z,102629.44
2022-12-03T01:25:31.747Z,102619.88
2022-12-03T01:27:58.132Z,102622.50
2022-12-03T01:30:24.457Z,102620.78
2022-12-03T01:32:50.900Z,102614.69
2022-12-03T01:35:17.523Z,102617.28
2022-12-03T01:37:44.019Z,102619.00
2022-12-03T01:40:15.819Z,102625.09
2022-12-03T01:42:42.754Z,102631.22
2022-12-03T01:45:23.675Z,102626.84
2022-12-03T01:47:50.147Z,102624.25
2022-12-03T01:50:22.984Z,102623.41
2022-12-03T01:52:49.439Z,102621.66
2022-12-03T01:55:19.799Z,102622.53
2022-12-03T01:57:50.198Z,102617.34
2022-12-03T02:00:20.281Z,102623.47
2022-12-03T02:02:53.544Z,102621.72
2022-12-03T02:07:55.212Z,102616.50
2022-12-03T02:10:32.487Z,102611.28
2022-12-03T02:13:06.172Z,102607.78
2022-12-03T02:15:32.922Z,102612.97
2022-12-03T02:17:59.850Z,102612.13
2022-12-03T02:20:26.627Z,102605.19
2022-12-03T02:22:55.852Z,102612.13
2022-12-03T02:25:31.979Z,102606.91
2022-12-03T02:27:59.662Z,102610.41
2022-12-03T02:30:27.545Z,102606.03
2022-12-03T02:32:54.448Z,102612.13
2022-12-03T02:35:23.656Z,102606.03
2022-12-03T02:37:53.932Z,102607.78
2022-12-03T02:40:24.068Z,102608.66
2022-12-03T02:42:53.838Z,102609.56
2022-12-03T02:45:24.694Z,102606.97
2022-12-03T02:47:55.686Z,102597.44
2022-12-03T02:50:26.269Z,102600.91
2022-12-03T02:52:55.529Z,102603.53
2022-12-03T02:55:23.027Z,102604.38
2022-12-03T02:57:50.220Z,102598.28
2022-12-03T03:00:18.333Z,102598.28
2022-12-03T03:02:46.319Z,102605.22
2022-12-03T03:05:15.056Z,102599.13
2022-12-03T03:07:41.979Z,102593.06
2022-12-03T03:10:12.278Z,102594.75
2022-12-03T03:12:39.548Z,102589.56
2022-12-03T03:15:07.608Z,102580.03
2022-12-03T03:17:35.262Z,102591.28
2022-12-03T03:20:03.782Z,102586.97
2022-12-03T03:22:41.906Z,102586.97
2022-12-03T03:25:16.521Z,102579.16
2022-12-03T03:27:44.499Z,102584.34
2022-12-03T03:30:12.082Z,102578.25
2022-12-03T03:32:39.896Z,102579.97
2022-12-03T03:35:08.594Z,102578.28
2022-12-03T03:37:35.078Z,102574.78
2022-12-03T03:40:01.885Z,102570.47
2022-12-03T03:42:28.412Z,102570.47
2022-12-03T03:44:55.116Z,102575.66
2022-12-03T03:47:23.679Z,102569.59
2022-12-03T03:49:50.787Z,102574.00
2022-12-03T03:52:19.602Z,102574.00
2022-12-03T03:54:46.940Z,102566.16
2022-12-03T03:57:13.274Z,102566.16
2022-12-03T03:59:40.067Z,102564.41
2022-12-03T04:02:06.451Z,102562.66
2022-12-03T04:04:36.569Z,102559.19
2022-12-03T04:07:03.078Z,102557.44
2022-12-03T04:09:29.485Z,102556.56
2022-12-03T04:12:14.581Z,102562.66
2022-12-03T04:14:40.901Z,102560.06
2022-12-03T04:17:07.206Z,102550.53
2022-12-03T04:19:33.565Z,102555.75
2022-12-03T04:22:18.490Z,102553.16
2022-12-03T04:24:44.878Z,102556.56
2022-12-03T04:27:29.594Z,102547.00
2022-12-03T04:29:55.967Z,102547.81
2022-12-03T04:32:40.796Z,102548.69
2022-12-03T04:35:26.117Z,102542.63
2022-12-03T04:37:52.522Z,102539.19
2022-12-03T04:40:37.222Z,102537.47
2022-12-03T04:43:03.738Z,102545.25
2022-12-03T04:45:30.191Z,102535.66
2022-12-03T04:47:56.637Z,102537.34
2022-12-03T04:50:23.019Z,102535.59
2022-12-03T04:52:49.426Z,102534.66
2022-12-03T04:55:15.839Z,102535.53
2022-12-03T04:57:42.147Z,102537.28
2022-12-03T05:00:09.157Z,102544.19
2022-12-03T05:02:35.532Z,102536.38
2022-12-03T05:05:01.997Z,102533.75
2022-12-03T05:07:28.441Z,102538.88
2022-12-03T05:09:54.936Z,102539.72
2022-12-03T05:12:21.387Z,102541.44
2022-12-03T05:14:47.785Z,102539.72
2022-12-03T05:17:14.306Z,102541.41
2022-12-03T05:19:59.211Z,102541.38
2022-12-03T05:22:25.609Z,102537.88
2022-12-03T05:24:52.335Z,102533.53
2022-12-03T05:27:23.513Z,102530.94
2022-12-03T05:29:50.361Z,102531.75
2022-12-03T05:32:16.768Z,102523.91
2022-12-03T05:34:43.079Z,102529.06
2022-12-03T05:37:09.535Z,102521.25
2022-12-03T05:39:35.876Z,102524.75
2022-12-03T05:42:20.861Z,102525.66
2022-12-03T05:44:47.228Z,102531.75
2022-12-03T05:47:13.973Z,102524.88
2022-12-03T05:49:40.367Z,102523.94
2022-12-03T05:52:06.795Z,102522.19
2022-12-03T05:54:33.123Z,102515.22
2022-12-03T05:56:59.496Z,102510.91
2022-12-03T05:59:25.829Z,102504.72
2022-12-03T06:01:52.212Z,102508.13
2022-12-03T06:04:18.651Z,102508.94
2022-12-03T06:06:45.100Z,102508.06
2022-12-03T06:09:11.439Z,102506.34
2022-12-03T06:11:37.845Z,102504.56
2022-12-03T06:14:04.245Z,102503.75
2022-12-03T06:16:30.667Z,102495.91
2022-12-03T06:18:57.106Z,102485.50
2022-12-03T06:21:23.428Z,102495.00
2022-12-03T06:23:49.793Z,102481.03
2022-12-03T06:26:16.188Z,102483.63
2022-12-03T06:28:46.347Z,102491.44
2022-12-03T06:31:13.821Z,102484.47
2022-12-03T06:33:40.240Z,102493.13
2022-12-03T06:36:06.934Z,102497.53
2022-12-03T06:38:33.310Z,102490.56
2022-12-03T06:40:59.673Z,102489.69
2022-12-03T06:43:26.114Z,102501.88
2022-12-03T06:45:52.886Z,102500.19
2022-12-03T06:48:19.197Z,102490.56
2022-12-03T06:50:45.490Z,102487.06
2022-12-03T06:53:11.845Z,102493.16
2022-12-03T06:55:38.284Z,102488.72
2022-12-03T06:58:04.688Z,102486.97
2022-12-03T07:00:31.014Z,102487.81
2022-12-03T07:02:57.393Z,102492.19
2022-12-03T07:05:23.813Z,102494.78
2022-12-03T07:07:52.083Z,102493.97
2022-12-03T07:10:19.142Z,102493.16
2022-12-03T07:12:45.589Z,102495.81
2022-12-03T07:15:12.039Z,102487.94
2022-12-03T07:17:38.463Z,102501.81
2022-12-03T07:20:05.836Z,102501.00
2022-12-03T07:22:32.275Z,102504.41
2022-12-03T07:24:58.722Z,102507.03
2022-12-03T07:27:25.174Z,102503.59
2022-12-03T07:29:51.769Z,102503.53
2022-12-03T07:32:18.204Z,102503.53
2022-12-03T07:34:44.625Z,102513.97
2022-12-03T07:37:11.135Z,102514.03
2022-12-03T07:39:37.574Z,102509.66
2022-12-03T07:42:04.291Z,102512.25
2022-12-03T07:44:33.351Z,102513.13
2022-12-03T07:46:59.833Z,102510.53
2022-12-03T07:49:26.921Z,102507.00
2022-12-03T07:51:54.219Z,102505.31
2022-12-03T07:54:21.286Z,102514.03
2022-12-03T07:56:48.127Z,102510.47
2022-12-03T07:59:15.418Z,102500.91
2022-12-03T08:01:41.917Z,102501.75
2022-12-03T08:04:08.599Z,102502.63
2022-12-03T08:06:35.116Z,102505.25
2022-12-03T08:09:01.462Z,102500.88
2022-12-03T08:11:29.362Z,102505.25
2022-12-03T08:13:57.373Z,102505.25
2022-12-03T08:16:23.828Z,102505.25
2022-12-03T08:18:51.326Z,102497.50
2022-12-03T08:21:21.431Z,102513.94
2022-12-03T08:23:47.966Z,102496.56
2022-12-03T08:26:32.452Z,102495.69
2022-12-03T08:28:58.879Z,102488.78
2022-12-03T08:31:32.633Z,102494.81
2022-12-03T08:34:20.381Z,102491.34
2022-12-03T08:36:49.698Z,102496.59
2022-12-03T08:39:33.448Z,102494.88
2022-12-03T08:42:42.566Z,102495.72
2022-12-03T08:45:29.062Z,102497.59
2022-12-03T08:48:01.771Z,102493.31
2022-12-03T08:50:31.325Z,102487.22
2022-12-03T08:53:14.229Z,102484.56
2022-12-03T08:55:52.936Z,102485.44
2022-12-03T08:58:23.750Z,102481.94
2022-12-03T09:01:08.548Z,102486.31
2022-12-03T09:03:35.100Z,102490.66
2022-12-03T09:06:01.537Z,102482.78
2022-12-03T09:08:28.002Z,102480.22
2022-12-03T09:10:54.326Z,102475.91
2022-12-03T09:13:20.801Z,102482.94
2022-12-03T09:15:47.164Z,102477.69
2022-12-03T09:18:14.585Z,102476.72
2022-12-03T09:20:41.084Z,102478.44
2022-12-03T09:23:07.487Z,102468.91
2022-12-03T09:25:33.806Z,102470.69
2022-12-03T09:28:00.147Z,102471.59
2022-12-03T09:30:26.516Z,102472.47
2022-12-03T09:32:52.947Z,102470.69
2022-12-03T09:35:20.389Z,102470.69
2022-12-03T09:37:46.806Z,102470.63
2022-12-03T09:40:13.730Z,102475.91
2022-12-03T09:42:40.517Z,102475.81
2022-12-03T09:45:10.815Z,102474.09
2022-12-03T09:47:38.956Z,102481.06
2022-12-03T09:50:06.668Z,102479.31
2022-12-03T09:52:34.341Z,102479.47
2022-12-03T09:55:08.163Z,102482.94
2022-12-03T09:57:34.623Z,102480.28
2022-12-03T10:00:01.009Z,102483.78
2022-12-03T10:02:30.592Z,102478.63
2022-12-03T10:04:58.107Z,102473.38
2022-12-03T10:07:25.813Z,102475.97
2022-12-03T10:09:53.011Z,102480.34
2022-12-03T10:12:24.165Z,102482.13
2022-12-03T10:14:52.619Z,102483.03
2022-12-03T10:17:19.283Z,102479.53
2022-12-03T10:19:46.133Z,102475.19
2022-12-03T10:22:12.514Z,102482.16
2022-12-03T10:24:39.077Z,102476.13
2022-12-03T10:27:30.777Z,102486.53
2022-12-03T10:29:59.299Z,102481.34
2022-12-03T10:32:38.138Z,102474.38
2022-12-03T10:35:17.310Z,102474.41
2022-12-03T10:37:58.490Z,102471.88
2022-12-03T10:40:46.582Z,102472.69
2022-12-03T10:43:15.855Z,102466.59
2022-12-03T10:45:43.577Z,102460.47
2022-12-03T10:48:15.299Z,102458.72
2022-12-03T10:50:48.850Z,102447.41
2022-12-03T10:53:15.845Z,102450.91
2022-12-03T10:55:43.916Z,102448.31
2022-12-03T10:58:23.002Z,102437.00
2022-12-03T11:00:51.890Z,102438.69
2022-12-03T11:03:22.190Z,102436.97
2022-12-03T11:05:49.850Z,102435.28
2022-12-03T11:08:18.721Z,102436.19
2022-12-03T11:10:45.965Z,102437.84
2022-12-03T11:13:34.291Z,102438.78
2022-12-03T11:16:02.571Z,102439.56
2022-12-03T11:18:37.900Z,102431.81
2022-12-03T11:21:04.401Z,102429.16
2022-12-03T11:23:46.006Z,102426.53
2022-12-03T11:26:19.598Z,102416.94
2022-12-03T11:28:46.336Z,102418.72
2022-12-03T11:31:46.539Z,102413.50
2022-12-03T11:34:19.483Z,102417.81
2022-12-03T11:37:10.652Z,102411.72
2022-12-03T11:39:49.376Z,102405.66
2022-12-03T11:42:27.878Z,102408.28
2022-12-03T11:45:06.552Z,102397.78
2022-12-03T11:47:57.772Z,102397.81
2022-12-03T11:50:37.611Z,102399.50
2022-12-03T11:53:22.637Z,102397.84
2022-12-03T11:56:11.159Z,102396.03
2022-12-03T11:58:42.273Z,102388.13
2022-12-03T12:01:09.545Z,102388.19
2022-12-03T12:03:47.759Z,102384.78
2022-12-03T12:06:19.233Z,102385.53
2022-12-03T12:08:51.732Z,102375.16
2022-12-03T12:11:26.391Z,102370.84
2022-12-03T12:14:14.760Z,102376.13
2022-12-03T12:16:52.700Z,102372.66
2022-12-03T12:19:36.003Z,102377.00
2022-12-03T12:22:19.695Z,102370.13
2022-12-03T12:24:54.628Z,102362.25
2022-12-03T12:27:40.919Z,102363.22
2022-12-03T12:30:14.685Z,102365.00
2022-12-03T12:32:48.528Z,102347.66
2022-12-03T12:35:27.334Z,102345.84
2022-12-03T12:37:59.844Z,102345.91
2022-12-03T12:40:29.850Z,102339.84
2022-12-03T12:43:23.774Z,102336.38
2022-12-03T12:46:46.222Z,102332.84
2022-12-03T12:49:00.238Z,102337.16
2022-12-03T12:51:26.782Z,102334.56
2022-12-03T12:53:53.964Z,102338.97
2022-12-03T12:56:27.989Z,102335.41
2022-12-03T12:58:56.934Z,102334.56
2022-12-03T13:01:31.253Z,102335.41
2022-12-03T13:03:59.376Z,102330.25
2022-12-03T13:06:28.209Z,102326.75
2022-12-03T13:08:55.005Z,102321.50
2022-12-03T13:11:45.426Z,102327.41
2022-12-03T13:14:17.730Z,102321.25
2022-12-03T13:16:44.416Z,102323.91
2022-12-03T13:19:28.063Z,102314.38
2022-12-03T13:21:57.006Z,102316.06
2022-12-03T13:24:31.841Z,102319.59
2022-12-03T13:27:02.420Z,102316.06
2022-12-03T13:29:29.024Z,102319.59
2022-12-03T13:31:59.965Z,102326.56
2022-12-03T13:34:33.682Z,102316.91
2022-12-03T13:37:01.694Z,102316.06
2022-12-03T13:39:30.764Z,102308.31
2022-12-03T13:42:24.619Z,102307.44
2022-12-03T13:44:53.202Z,102302.28
2022-12-03T13:47:21.834Z,102298.84
2022-12-03T13:49:58.239Z,102301.53
2022-12-03T13:52:25.865Z,102308.50
2022-12-03T13:54:55.288Z,102297.22
2022-12-03T13:57:22.677Z,102300.78
2022-12-03T13:59:49.350Z,102301.69
2022-12-03T14:02:15.756Z,102295.59
2022-12-03T14:04:42.228Z,102296.47
2022-12-03T14:07:08.586Z,102301.72
2022-12-03T14:09:34.950Z,102300.88
2022-12-03T14:12:20.003Z,102301.72
2022-12-03T14:14:46.466Z,102292.97
2022-12-03T14:17:12.899Z,102290.44
2022-12-03T14:19:39.491Z,102286.13
2022-12-03T14:22:07.921Z,102290.44
2022-12-03T14:24:34.270Z,102288.66
2022-12-03T14:27:00.668Z,102279.09
2022-12-03T14:29:27.249Z,102273.88
2022-12-03T14:31:53.792Z,102273.00
2022-12-03T14:34:20.798Z,102273.88
2022-12-03T14:36:47.234Z,102279.94
2022-12-03T14:39:13.579Z,102274.72
2022-12-03T14:41:58.590Z,102273.78
2022-12-03T14:44:25.280Z,102279.03
2022-12-03T14:46:55.472Z,102275.56
2022-12-03T14:49:23.083Z,102273.78
2022-12-03T14:51:49.527Z,102282.47
2022-12-03T14:54:15.935Z,102272.88
2022-12-03T14:56:42.446Z,102279.91
2022-12-03T14:59:08.831Z,102281.63
2022-12-03T15:01:35.400Z,102284.22
2022-12-03T15:04:02.040Z,102283.31
2022-12-03T15:06:28.494Z,102277.25
2022-12-03T15:08:54.919Z,102278.22
2022-12-03T15:11:21.438Z,102269.66
2022-12-03T15:13:47.879Z,102273.16
2022-12-03T15:16:14.457Z,102272.31
2022-12-03T15:18:40.845Z,102269.72
2022-12-03T15:21:07.367Z,102262.69
2022-12-03T15:23:33.735Z,102271.31
2022-12-03T15:26:00.074Z,102273.00
2022-12-03T15:28:27.417Z,102270.41
2022-12-03T15:30:53.919Z,102269.59
2022-12-03T15:33:20.385Z,102277.50
2022-12-03T15:35:46.847Z,102269.72
2022-12-03T15:38:13.433Z,102278.44
2022-12-03T15:40:40.042Z,102277.59
2022-12-03T15:43:08.143Z,102277.53
2022-12-03T15:45:35.230Z,102278.44
2022-12-03T15:48:01.806Z,102282.78
2022-12-03T15:50:28.641Z,102274.97
2022-12-03T15:52:55.292Z,102287.97
2022-12-03T15:55:21.771Z,102286.16
2022-12-03T15:57:49.183Z,102287.03
2022-12-03T16:00:17.214Z,102286.16
2022-12-03T16:02:49.054Z,102284.47
2022-12-03T16:05:18.885Z,102282.75
2022-12-03T16:07:45.349Z,102286.22
2022-12-03T16:10:12.102Z,102285.38
2022-12-03T16:12:38.535Z,102282.78
2022-12-03T16:15:05.569Z,102282.75
2022-12-03T16:17:32.035Z,102282.00
2022-12-03T16:19:58.463Z,102284.59
2022-12-03T16:22:24.833Z,102276.72
2022-12-03T16:24:51.270Z,102284.53
2022-12-03T16:27:19.623Z,102274.09
2022-12-03T16:29:49.217Z,102268.13
2022-12-03T16:32:15.538Z,102278.47
2022-12-03T16:34:41.900Z,102277.66
2022-12-03T16:37:09.499Z,102269.91
2022-12-03T16:39:35.877Z,102275.13
2022-12-03T16:42:03.815Z,102268.19
2022-12-03T16:44:43.538Z,102267.31
2022-12-03T16:47:09.945Z,102262.13
2022-12-03T16:49:36.298Z,102257.81
2022-12-03T16:52:02.825Z,102253.44
2022-12-03T16:54:29.201Z,102252.59
2022-12-03T16:56:55.577Z,102258.66
2022-12-03T16:59:21.979Z,102248.22
2022-12-03T17:01:48.367Z,102249.06
2022-12-03T17:04:14.728Z,102256.00
2022-12-03T17:06:41.080Z,102243.84
2022-12-03T17:09:07.452Z,102249.09
2022-12-03T17:11:33.851Z,102254.25
2022-12-03T17:14:00.201Z,102252.44
2022-12-03T17:16:26.674Z,102257.69
2022-12-03T17:18:53.108Z,102256.00
2022-12-03T17:21:19.482Z,102252.59
2022-12-03T17:23:48.736Z,102258.69
2022-12-03T17:26:15.293Z,102258.69
2022-12-03T17:28:41.665Z,102261.28
2022-12-03T17:31:08.206Z,102256.91
2022-12-03T17:33:34.598Z,102265.63
2022-12-03T17:36:00.957Z,102259.63
2022-12-03T17:38:27.395Z,102264.00
2022-12-03T17:40:53.739Z,102261.38
2022-12-03T17:43:20.101Z,102258.81
2022-12-03T17:45:46.521Z,102253.56
2022-12-03T17:48:12.917Z,102253.56
2022-12-03T17:50:39.340Z,102253.47
2022-12-03T17:53:07.901Z,102255.22
2022-12-03T17:55:41.161Z,102257.03
2022-12-03T17:58:10.793Z,102252.81
2022-12-03T18:00:37.241Z,102256.31
2022-12-03T18:03:03.755Z,102256.22
2022-12-03T18:05:30.140Z,102251.91
2022-12-03T18:07:56.704Z,102252.81
2022-12-03T18:10:23.113Z,102255.41
2022-12-03T18:12:49.430Z,102252.00
2022-12-03T18:15:15.970Z,102245.16
2022-12-03T18:17:42.414Z,102249.50
2022-12-03T18:20:09.084Z,102240.84
2022-12-03T18:22:35.966Z,102237.41
2022-12-03T18:25:02.586Z,102232.19
2022-12-03T18:27:29.094Z,102231.34
2022-12-03T18:29:55.680Z,102234.06
2022-12-03T18:32:30.154Z,102234.06
2022-12-03T18:34:57.736Z,102236.66
2022-12-03T18:37:28.689Z,102235.81
2022-12-03T18:39:56.379Z,102232.38
2022-12-03T18:42:23.614Z,102224.53
2022-12-03T18:44:52.113Z,102224.53
2022-12-03T18:47:28.897Z,102223.66
2022-12-03T18:49:56.263Z,102228.06
2022-12-03T18:52:25.128Z,102223.75
2022-12-03T18:54:51.958Z,102222.84
2022-12-03T18:57:18.375Z,102223.66
2022-12-03T18:59:44.735Z,102229.75
2022-12-03T19:05:07.886Z,102223.75
2022-12-03T19:07:34.451Z,102223.75
2022-12-03T19:10:00.859Z,102222.91
2022-12-03T19:12:27.221Z,102224.66
2022-12-03T19:14:53.574Z,102224.66
2022-12-03T19:17:21.269Z,102229.84
2022-12-03T19:19:47.654Z,102226.34
2022-12-03T19:22:14.046Z,102225.47
2022-12-03T19:24:40.430Z,102228.97
2022-12-03T19:27:06.795Z,102227.25
2022-12-03T19:29:33.206Z,102222.91
2022-12-03T19:31:59.642Z,102227.19
2022-12-03T19:34:26.264Z,102228.06
2022-12-03T19:36:52.624Z,102216.84
2022-12-03T19:39:19.004Z,102220.31
2022-12-03T19:41:45.534Z,102215.94
2022-12-03T19:44:16.051Z,102220.25
2022-12-03T19:46:43.204Z,102215.09
2022-12-03T19:49:10.457Z,102212.53
2022-12-03T19:51:37.423Z,102215.13
2022-12-03T19:54:05.890Z,102209.91
2022-12-03T19:56:32.594Z,102204.66
2022-12-03T19:58:59.143Z,102211.63
2022-12-03T20:01:28.283Z,102205.50
2022-12-03T20:03:56.316Z,102200.22
2022-12-03T20:06:25.982Z,102201.06
2022-12-03T20:09:01.447Z,102211.53
2022-12-03T20:11:30.812Z,102206.28
2022-12-03T20:14:00.257Z,102207.22
2022-12-03T20:16:27.839Z,102211.56
2022-12-03T20:18:59.565Z,102212.44
2022-12-03T20:21:26.853Z,102207.19
2022-12-03T20:23:53.264Z,102212.41
2022-12-03T20:26:21.026Z,102211.56
2022-12-03T20:28:50.263Z,102204.63
2022-12-03T20:31:20.209Z,102202.00
2022-12-03T20:33:49.062Z,102201.09
2022-12-03T20:36:17.522Z,102201.97
2022-12-03T20:38:44.392Z,102190.69
2022-12-03T20:41:16.081Z,102196.91
2022-12-03T20:43:42.813Z,102188.19
2022-12-03T20:46:15.568Z,102193.34
2022-12-03T20:48:43.278Z,102190.78
2022-12-03T20:51:13.072Z,102188.13
2022-12-03T20:53:40.041Z,102182.94
2022-12-03T20:56:08.001Z,102185.53
2022-12-03T20:58:35.183Z,102175.13
2022-12-03T21:01:28.280Z,102171.75
2022-12-03T21:03:56.462Z,102169.09
2022-12-03T21:06:25.278Z,102169.88
2022-12-03T21:08:55.620Z,102175.06
2022-12-03T21:11:24.609Z,102171.66
2022-12-03T21:13:51.976Z,102173.38
2022-12-03T21:16:34.197Z,102174.25
2022-12-03T21:19:06.930Z,102171.72
2022-12-03T21:21:34.994Z,102174.41
2022-12-03T21:24:01.400Z,102178.72
2022-12-03T21:26:27.831Z,102172.66
2022-12-03T21:28:54.323Z,102176.91
2022-12-03T21:31:23.337Z,102175.19
2022-12-03T21:33:49.681Z,102174.41
2022-12-03T21:36:16.901Z,102172.66
2022-12-03T21:38:44.924Z,102171.03
2022-12-03T21:41:12.555Z,102168.38
2022-12-03T21:43:39.058Z,102175.38
2022-12-03T21:47:08.426Z,102174.56
2022-12-03T21:48:57.294Z,102161.44
2022-12-03T21:51:23.683Z,102168.44
2022-12-03T21:53:50.718Z,102171.94
2022-12-03T21:56:18.970Z,102171.03
2022-12-03T21:58:45.570Z,102175.38
2022-12-03T22:01:13.749Z,102166.66
2022-12-03T22:03:40.819Z,102164.97
2022-12-03T22:06:07.669Z,102171.84
2022-12-03T22:08:34.192Z,102166.72
2022-12-03T22:11:04.867Z,102158.94
2022-12-03T22:13:31.379Z,102165.84
2022-12-03T22:15:57.752Z,102159.78
2022-12-03T22:18:24.091Z,102159.84
2022-12-03T22:20:50.480Z,102158.06
2022-12-03T22:23:16.866Z,102155.44
2022-12-03T22:25:43.225Z,102155.44
2022-12-03T22:28:09.577Z,102156.25
2022-12-03T22:30:39.150Z,102162.31
2022-12-03T22:33:05.512Z,102157.97
2022-12-03T22:35:31.840Z,102164.03
2022-12-03T22:37:58.173Z,102161.44
2022-12-03T22:40:24.535Z,102157.94
2022-12-03T22:42:51.269Z,102161.44
2022-12-03T22:45:17.706Z,102159.75
2022-12-03T22:47:44.080Z,102157.97
2022-12-03T22:50:10.676Z,102147.53
2022-12-03T22:52:37.015Z,102149.25
2022-12-03T22:55:03.619Z,102154.50
2022-12-03T22:57:31.341Z,102147.63
2022-12-03T22:59:57.741Z,102145.88
2022-12-03T23:02:24.162Z,102146.72
2022-12-03T23:04:50.570Z,102146.75
2022-12-03T23:07:16.960Z,102140.69
2022-12-03T23:09:43.301Z,102139.75
2022-12-03T23:12:09.950Z,102139.75
2022-12-03T23:14:36.741Z,102140.63
2022-12-03T23:17:03.344Z,102140.63
2022-12-03T23:19:29.724Z,102131.09
2022-12-03T23:21:56.021Z,102131.13
2022-12-03T23:24:22.390Z,102118.97
2022-12-03T23:26:48.845Z,102141.50
2022-12-03T23:29:15.212Z,102138.94
2022-12-03T23:31:41.531Z,102137.22
2022-12-03T23:34:07.990Z,102135.50
2022-12-03T23:36:34.673Z,102144.22
2022-12-03T23:39:01.082Z,102144.22
2022-12-03T23:41:27.685Z,102141.59
2022-12-03T23:43:54.125Z,102142.50
2022-12-03T23:46:23.256Z,102139.03
2022-12-03T23:48:50.423Z,102143.34
2022-12-03T23:51:20.160Z,102144.22
2022-12-03T23:53:47.181Z,102144.22
2022-12-03T23:56:16.621Z,102137.25
2022-12-03T23:58:43.850Z,102132.03
